sensor_id;sensor_type;location;lat;lon;timestamp;P1;durP1;ratioP1;P2;durP2;ratioP2
45676;SDS011;31390;51.186;6.830;2023-02-15T00:01:33;38.27;;;28.07;;
45676;SDS011;31390;51.186;6.830;2023-02-15T00:04:00;37.37;;;28.83;;
45676;SDS011;31390;51.186;6.830;2023-02-15T00:06:27;37.43;;;28.87;;
45676;SDS011;31390;51.186;6.830;2023-02-15T00:08:54;36.00;;;28.87;;
45676;SDS011;31390;51.186;6.830;2023-02-15T00:11:21;34.40;;;27.73;;
45676;SDS011;31390;51.186;6.830;2023-02-15T00:14:12;38.70;;;28.67;;
45676;SDS011;31390;51.186;6.830;2023-02-15T00:16:39;37.43;;;28.90;;
45676;SDS011;31390;51.186;6.830;2023-02-15T00:19:06;35.17;;;28.13;;
45676;SDS011;31390;51.186;6.830;2023-02-15T00:21:33;37.13;;;28.70;;
45676;SDS011;31390;51.186;6.830;2023-02-15T00:24:01;36.33;;;29.40;;
45676;SDS011;31390;51.186;6.830;2023-02-15T00:26:28;38.97;;;30.53;;
45676;SDS011;31390;51.186;6.830;2023-02-15T00:28:54;35.20;;;28.33;;
45676;SDS011;31390;51.186;6.830;2023-02-15T00:31:21;39.70;;;32.20;;
45676;SDS011;31390;51.186;6.830;2023-02-15T00:33:48;39.70;;;30.80;;
45676;SDS011;31390;51.186;6.830;2023-02-15T00:36:14;38.37;;;30.63;;
45676;SDS011;31390;51.186;6.830;2023-02-15T00:38:41;36.30;;;30.23;;
45676;SDS011;31390;51.186;6.830;2023-02-15T00:41:07;36.00;;;28.17;;
45676;SDS011;31390;51.186;6.830;2023-02-15T00:43:35;36.27;;;28.50;;
45676;SDS011;31390;51.186;6.830;2023-02-15T00:46:02;40.37;;;30.53;;
45676;SDS011;31390;51.186;6.830;2023-02-15T00:48:30;40.07;;;30.60;;
45676;SDS011;31390;51.186;6.830;2023-02-15T00:50:57;43.10;;;31.87;;
45676;SDS011;31390;51.186;6.830;2023-02-15T00:53:24;39.63;;;30.83;;
45676;SDS011;31390;51.186;6.830;2023-02-15T00:55:51;39.33;;;30.23;;
45676;SDS011;31390;51.186;6.830;2023-02-15T00:58:18;41.23;;;30.70;;
45676;SDS011;31390;51.186;6.830;2023-02-15T01:00:45;44.13;;;32.47;;
45676;SDS011;31390;51.186;6.830;2023-02-15T01:03:12;42.10;;;32.63;;
45676;SDS011;31390;51.186;6.830;2023-02-15T01:05:38;44.40;;;31.70;;
45676;SDS011;31390;51.186;6.830;2023-02-15T01:08:05;38.60;;;31.33;;
45676;SDS011;31390;51.186;6.830;2023-02-15T01:10:33;46.20;;;33.07;;
45676;SDS011;31390;51.186;6.830;2023-02-15T01:12:59;46.40;;;32.70;;
45676;SDS011;31390;51.186;6.830;2023-02-15T01:15:26;41.67;;;31.10;;
45676;SDS011;31390;51.186;6.830;2023-02-15T01:17:53;43.27;;;32.10;;
45676;SDS011;31390;51.186;6.830;2023-02-15T01:20:21;41.57;;;32.43;;
45676;SDS011;31390;51.186;6.830;2023-02-15T01:22:48;43.00;;;33.23;;
45676;SDS011;31390;51.186;6.830;2023-02-15T01:25:16;43.70;;;31.57;;
45676;SDS011;31390;51.186;6.830;2023-02-15T01:27:43;42.57;;;32.13;;
45676;SDS011;31390;51.186;6.830;2023-02-15T01:30:12;43.47;;;32.77;;
45676;SDS011;31390;51.186;6.830;2023-02-15T01:32:39;48.30;;;33.37;;
45676;SDS011;31390;51.186;6.830;2023-02-15T01:35:06;46.63;;;34.97;;
45676;SDS011;31390;51.186;6.830;2023-02-15T01:37:33;44.00;;;33.47;;
45676;SDS011;31390;51.186;6.830;2023-02-15T01:40:00;42.70;;;32.93;;
45676;SDS011;31390;51.186;6.830;2023-02-15T01:42:28;46.57;;;35.13;;
45676;SDS011;31390;51.186;6.830;2023-02-15T01:44:58;40.33;;;32.50;;
45676;SDS011;31390;51.186;6.830;2023-02-15T01:49:57;43.27;;;33.57;;
45676;SDS011;31390;51.186;6.830;2023-02-15T01:52:24;41.83;;;31.77;;
45676;SDS011;31390;51.186;6.830;2023-02-15T01:54:50;42.03;;;32.27;;
45676;SDS011;31390;51.186;6.830;2023-02-15T01:57:18;39.67;;;32.50;;
45676;SDS011;31390;51.186;6.830;2023-02-15T01:59:46;43.03;;;32.60;;
45676;SDS011;31390;51.186;6.830;2023-02-15T02:02:15;42.53;;;33.17;;
45676;SDS011;31390;51.186;6.830;2023-02-15T02:04:45;42.60;;;32.23;;
45676;SDS011;31390;51.186;6.830;2023-02-15T02:07:14;41.60;;;32.87;;
45676;SDS011;31390;51.186;6.830;2023-02-15T02:09:41;41.90;;;33.07;;
45676;SDS011;31390;51.186;6.830;2023-02-15T02:12:08;43.10;;;32.23;;
45676;SDS011;31390;51.186;6.830;2023-02-15T02:14:38;43.17;;;31.53;;
45676;SDS011;31390;51.186;6.830;2023-02-15T02:33:39;42.37;;;31.77;;
45676;SDS011;31390;51.186;6.830;2023-02-15T02:38:44;41.27;;;32.47;;
45676;SDS011;31390;51.186;6.830;2023-02-15T02:48:39;42.07;;;32.27;;
45676;SDS011;31390;51.186;6.830;2023-02-15T02:51:06;41.97;;;32.00;;
45676;SDS011;31390;51.186;6.830;2023-02-15T02:53:32;41.57;;;32.27;;
45676;SDS011;31390;51.186;6.830;2023-02-15T02:56:03;42.53;;;32.57;;
45676;SDS011;31390;51.186;6.830;2023-02-15T02:58:47;42.43;;;31.73;;
45676;SDS011;31390;51.186;6.830;2023-02-15T03:03:43;40.50;;;32.47;;
45676;SDS011;31390;51.186;6.830;2023-02-15T03:06:20;41.13;;;32.57;;
45676;SDS011;31390;51.186;6.830;2023-02-15T03:08:54;37.07;;;30.73;;
45676;SDS011;31390;51.186;6.830;2023-02-15T03:11:23;42.30;;;32.97;;
45676;SDS011;31390;51.186;6.830;2023-02-15T03:13:51;40.93;;;32.43;;
45676;SDS011;31390;51.186;6.830;2023-02-15T03:16:18;42.90;;;34.33;;
45676;SDS011;31390;51.186;6.830;2023-02-15T03:21:34;45.93;;;32.47;;
45676;SDS011;31390;51.186;6.830;2023-02-15T03:24:07;43.30;;;32.70;;
45676;SDS011;31390;51.186;6.830;2023-02-15T03:26:35;40.07;;;32.00;;
45676;SDS011;31390;51.186;6.830;2023-02-15T03:29:02;44.87;;;34.83;;
45676;SDS011;31390;51.186;6.830;2023-02-15T03:31:31;39.87;;;31.03;;
45676;SDS011;31390;51.186;6.830;2023-02-15T03:34:00;40.43;;;31.70;;
45676;SDS011;31390;51.186;6.830;2023-02-15T03:41:49;40.97;;;32.83;;
45676;SDS011;31390;51.186;6.830;2023-02-15T03:44:19;38.83;;;30.90;;
45676;SDS011;31390;51.186;6.830;2023-02-15T03:46:52;45.77;;;33.10;;
45676;SDS011;31390;51.186;6.830;2023-02-15T03:49:21;40.13;;;31.03;;
45676;SDS011;31390;51.186;6.830;2023-02-15T03:51:50;42.13;;;32.37;;
45676;SDS011;31390;51.186;6.830;2023-02-15T03:54:25;46.10;;;35.73;;
45676;SDS011;31390;51.186;6.830;2023-02-15T03:57:11;43.87;;;33.50;;
45676;SDS011;31390;51.186;6.830;2023-02-15T03:59:57;42.17;;;32.57;;
45676;SDS011;31390;51.186;6.830;2023-02-15T04:02:46;40.50;;;31.23;;
45676;SDS011;31390;51.186;6.830;2023-02-15T04:05:16;42.80;;;33.37;;
45676;SDS011;31390;51.186;6.830;2023-02-15T04:07:42;40.27;;;31.00;;
45676;SDS011;31390;51.186;6.830;2023-02-15T04:10:09;43.43;;;33.47;;
45676;SDS011;31390;51.186;6.830;2023-02-15T04:12:54;42.77;;;33.10;;
45676;SDS011;31390;51.186;6.830;2023-02-15T04:15:21;42.50;;;32.93;;
45676;SDS011;31390;51.186;6.830;2023-02-15T04:18:06;41.07;;;32.50;;
45676;SDS011;31390;51.186;6.830;2023-02-15T04:20:32;40.23;;;31.93;;
45676;SDS011;31390;51.186;6.830;2023-02-15T04:23:18;41.53;;;32.77;;
45676;SDS011;31390;51.186;6.830;2023-02-15T04:26:03;42.43;;;31.93;;
45676;SDS011;31390;51.186;6.830;2023-02-15T04:28:30;43.50;;;32.87;;
45676;SDS011;31390;51.186;6.830;2023-02-15T04:30:57;42.33;;;32.37;;
45676;SDS011;31390;51.186;6.830;2023-02-15T04:33:24;41.20;;;32.37;;
45676;SDS011;31390;51.186;6.830;2023-02-15T04:35:50;43.50;;;32.73;;
45676;SDS011;31390;51.186;6.830;2023-02-15T04:38:17;40.20;;;31.00;;
45676;SDS011;31390;51.186;6.830;2023-02-15T04:40:43;40.00;;;31.90;;
45676;SDS011;31390;51.186;6.830;2023-02-15T04:43:10;38.70;;;30.37;;
45676;SDS011;31390;51.186;6.830;2023-02-15T04:45:36;38.17;;;30.37;;
45676;SDS011;31390;51.186;6.830;2023-02-15T04:48:03;43.97;;;32.50;;
45676;SDS011;31390;51.186;6.830;2023-02-15T04:50:29;45.93;;;32.53;;
45676;SDS011;31390;51.186;6.830;2023-02-15T04:52:56;41.30;;;32.77;;
45676;SDS011;31390;51.186;6.830;2023-02-15T04:55:23;44.77;;;34.10;;
45676;SDS011;31390;51.186;6.830;2023-02-15T04:57:49;46.53;;;34.63;;
45676;SDS011;31390;51.186;6.830;2023-02-15T05:00:16;44.70;;;35.60;;
45676;SDS011;31390;51.186;6.830;2023-02-15T05:02:42;44.97;;;33.83;;
45676;SDS011;31390;51.186;6.830;2023-02-15T05:05:09;50.27;;;35.13;;
45676;SDS011;31390;51.186;6.830;2023-02-15T05:07:39;48.80;;;33.80;;
45676;SDS011;31390;51.186;6.830;2023-02-15T05:10:05;47.23;;;33.77;;
45676;SDS011;31390;51.186;6.830;2023-02-15T05:12:32;42.07;;;32.70;;
45676;SDS011;31390;51.186;6.830;2023-02-15T05:14:58;39.53;;;31.97;;
45676;SDS011;31390;51.186;6.830;2023-02-15T05:17:25;37.07;;;30.90;;
45676;SDS011;31390;51.186;6.830;2023-02-15T05:19:51;45.70;;;32.77;;
45676;SDS011;31390;51.186;6.830;2023-02-15T05:22:18;47.07;;;32.83;;
45676;SDS011;31390;51.186;6.830;2023-02-15T05:24:45;43.60;;;34.00;;
45676;SDS011;31390;51.186;6.830;2023-02-15T05:27:30;44.00;;;33.43;;
45676;SDS011;31390;51.186;6.830;2023-02-15T05:30:15;47.27;;;34.80;;
45676;SDS011;31390;51.186;6.830;2023-02-15T05:32:42;45.67;;;34.17;;
45676;SDS011;31390;51.186;6.830;2023-02-15T05:35:11;43.60;;;33.03;;
45676;SDS011;31390;51.186;6.830;2023-02-15T05:37:38;47.70;;;34.10;;
45676;SDS011;31390;51.186;6.830;2023-02-15T05:40:05;39.17;;;31.53;;
45676;SDS011;31390;51.186;6.830;2023-02-15T05:42:32;45.67;;;35.33;;
45676;SDS011;31390;51.186;6.830;2023-02-15T05:44:58;48.47;;;35.37;;
45676;SDS011;31390;51.186;6.830;2023-02-15T05:47:25;47.83;;;34.73;;
45676;SDS011;31390;51.186;6.830;2023-02-15T05:49:51;43.93;;;33.17;;
45676;SDS011;31390;51.186;6.830;2023-02-15T05:52:19;48.23;;;35.90;;
45676;SDS011;31390;51.186;6.830;2023-02-15T05:54:47;46.13;;;34.10;;
45676;SDS011;31390;51.186;6.830;2023-02-15T05:57:13;46.87;;;34.40;;
45676;SDS011;31390;51.186;6.830;2023-02-15T05:59:40;48.27;;;35.67;;
45676;SDS011;31390;51.186;6.830;2023-02-15T06:02:06;49.57;;;35.47;;
45676;SDS011;31390;51.186;6.830;2023-02-15T06:04:33;50.30;;;36.37;;
45676;SDS011;31390;51.186;6.830;2023-02-15T06:07:00;51.73;;;36.70;;
45676;SDS011;31390;51.186;6.830;2023-02-15T06:09:26;48.47;;;35.90;;
45676;SDS011;31390;51.186;6.830;2023-02-15T06:11:52;46.67;;;34.23;;
45676;SDS011;31390;51.186;6.830;2023-02-15T06:14:19;48.90;;;36.70;;
45676;SDS011;31390;51.186;6.830;2023-02-15T06:16:45;52.67;;;36.27;;
45676;SDS011;31390;51.186;6.830;2023-02-15T06:19:12;56.93;;;39.53;;
45676;SDS011;31390;51.186;6.830;2023-02-15T06:21:38;54.77;;;39.80;;
45676;SDS011;31390;51.186;6.830;2023-02-15T06:24:05;47.43;;;36.10;;
45676;SDS011;31390;51.186;6.830;2023-02-15T06:26:31;55.77;;;39.10;;
45676;SDS011;31390;51.186;6.830;2023-02-15T06:28:58;48.77;;;38.03;;
45676;SDS011;31390;51.186;6.830;2023-02-15T06:31:24;46.17;;;36.57;;
45676;SDS011;31390;51.186;6.830;2023-02-15T06:33:51;50.33;;;38.63;;
45676;SDS011;31390;51.186;6.830;2023-02-15T06:36:17;44.60;;;34.30;;
45676;SDS011;31390;51.186;6.830;2023-02-15T06:38:44;45.63;;;35.30;;
45676;SDS011;31390;51.186;6.830;2023-02-15T06:41:10;45.47;;;34.37;;
45676;SDS011;31390;51.186;6.830;2023-02-15T06:43:39;45.20;;;35.23;;
45676;SDS011;31390;51.186;6.830;2023-02-15T06:46:06;41.83;;;32.03;;
45676;SDS011;31390;51.186;6.830;2023-02-15T06:48:33;39.40;;;31.03;;
45676;SDS011;31390;51.186;6.830;2023-02-15T06:51:02;44.67;;;33.43;;
45676;SDS011;31390;51.186;6.830;2023-02-15T06:53:30;40.37;;;32.43;;
45676;SDS011;31390;51.186;6.830;2023-02-15T06:56:00;42.30;;;32.97;;
45676;SDS011;31390;51.186;6.830;2023-02-15T06:58:30;38.10;;;30.93;;
45676;SDS011;31390;51.186;6.830;2023-02-15T07:00:56;38.47;;;30.83;;
45676;SDS011;31390;51.186;6.830;2023-02-15T07:03:23;40.67;;;31.17;;
45676;SDS011;31390;51.186;6.830;2023-02-15T07:05:53;46.33;;;33.80;;
45676;SDS011;31390;51.186;6.830;2023-02-15T07:08:20;40.60;;;31.17;;
45676;SDS011;31390;51.186;6.830;2023-02-15T07:10:46;40.03;;;31.03;;
45676;SDS011;31390;51.186;6.830;2023-02-15T07:16:24;42.77;;;31.63;;
45676;SDS011;31390;51.186;6.830;2023-02-15T07:18:50;39.00;;;29.70;;
45676;SDS011;31390;51.186;6.830;2023-02-15T07:21:17;41.07;;;31.63;;
45676;SDS011;31390;51.186;6.830;2023-02-15T07:23:43;40.47;;;30.33;;
45676;SDS011;31390;51.186;6.830;2023-02-15T07:26:10;39.13;;;30.53;;
45676;SDS011;31390;51.186;6.830;2023-02-15T07:28:36;39.90;;;30.17;;
45676;SDS011;31390;51.186;6.830;2023-02-15T07:31:03;38.77;;;30.77;;
45676;SDS011;31390;51.186;6.830;2023-02-15T07:33:30;40.77;;;31.50;;
45676;SDS011;31390;51.186;6.830;2023-02-15T07:35:58;44.13;;;30.47;;
45676;SDS011;31390;51.186;6.830;2023-02-15T07:38:26;38.60;;;27.67;;
45676;SDS011;31390;51.186;6.830;2023-02-15T07:40:57;40.30;;;30.63;;
45676;SDS011;31390;51.186;6.830;2023-02-15T07:43:24;39.70;;;30.27;;
45676;SDS011;31390;51.186;6.830;2023-02-15T07:45:50;40.60;;;30.10;;
45676;SDS011;31390;51.186;6.830;2023-02-15T07:48:17;37.33;;;30.20;;
45676;SDS011;31390;51.186;6.830;2023-02-15T07:50:43;39.13;;;29.33;;
45676;SDS011;31390;51.186;6.830;2023-02-15T07:53:10;40.63;;;30.00;;
45676;SDS011;31390;51.186;6.830;2023-02-15T07:55:36;42.17;;;31.27;;
45676;SDS011;31390;51.186;6.830;2023-02-15T07:58:03;37.07;;;29.43;;
45676;SDS011;31390;51.186;6.830;2023-02-15T08:00:31;34.13;;;27.10;;
45676;SDS011;31390;51.186;6.830;2023-02-15T08:03:17;39.70;;;27.90;;
45676;SDS011;31390;51.186;6.830;2023-02-15T08:05:44;33.77;;;26.67;;
45676;SDS011;31390;51.186;6.830;2023-02-15T08:08:11;31.03;;;25.67;;
45676;SDS011;31390;51.186;6.830;2023-02-15T08:16:34;29.10;;;23.60;;
45676;SDS011;31390;51.186;6.830;2023-02-15T08:19:05;31.73;;;24.67;;
45676;SDS011;31390;51.186;6.830;2023-02-15T08:21:33;27.83;;;22.43;;
45676;SDS011;31390;51.186;6.830;2023-02-15T08:24:00;27.67;;;23.53;;
45676;SDS011;31390;51.186;6.830;2023-02-15T08:26:27;28.40;;;24.33;;
45676;SDS011;31390;51.186;6.830;2023-02-15T08:28:54;28.83;;;23.50;;
45676;SDS011;31390;51.186;6.830;2023-02-15T08:31:20;26.93;;;21.83;;
45676;SDS011;31390;51.186;6.830;2023-02-15T08:33:47;27.47;;;22.90;;
45676;SDS011;31390;51.186;6.830;2023-02-15T08:36:15;28.37;;;23.57;;
45676;SDS011;31390;51.186;6.830;2023-02-15T08:38:43;27.43;;;23.20;;
45676;SDS011;31390;51.186;6.830;2023-02-15T08:43:36;24.73;;;20.87;;
45676;SDS011;31390;51.186;6.830;2023-02-15T08:46:03;25.00;;;20.57;;
45676;SDS011;31390;51.186;6.830;2023-02-15T08:48:30;26.73;;;21.40;;
45676;SDS011;31390;51.186;6.830;2023-02-15T08:50:56;25.47;;;20.53;;
45676;SDS011;31390;51.186;6.830;2023-02-15T08:53:23;24.83;;;21.07;;
45676;SDS011;31390;51.186;6.830;2023-02-15T08:55:56;23.03;;;19.57;;
45676;SDS011;31390;51.186;6.830;2023-02-15T08:58:23;23.50;;;19.83;;
45676;SDS011;31390;51.186;6.830;2023-02-15T09:00:50;25.27;;;19.70;;
45676;SDS011;31390;51.186;6.830;2023-02-15T09:03:16;22.30;;;19.20;;
45676;SDS011;31390;51.186;6.830;2023-02-15T09:05:43;23.20;;;19.13;;
45676;SDS011;31390;51.186;6.830;2023-02-15T09:08:10;23.93;;;19.80;;
45676;SDS011;31390;51.186;6.830;2023-02-15T09:10:36;23.73;;;19.07;;
45676;SDS011;31390;51.186;6.830;2023-02-15T09:13:03;22.37;;;17.87;;
45676;SDS011;31390;51.186;6.830;2023-02-15T09:15:30;22.23;;;18.17;;
45676;SDS011;31390;51.186;6.830;2023-02-15T09:17:57;20.73;;;18.50;;
45676;SDS011;31390;51.186;6.830;2023-02-15T09:20:27;21.57;;;17.83;;
45676;SDS011;31390;51.186;6.830;2023-02-15T09:22:55;18.97;;;16.43;;
45676;SDS011;31390;51.186;6.830;2023-02-15T09:25:24;20.47;;;17.77;;
45676;SDS011;31390;51.186;6.830;2023-02-15T09:27:51;20.17;;;17.33;;
45676;SDS011;31390;51.186;6.830;2023-02-15T09:30:18;19.03;;;15.63;;
45676;SDS011;31390;51.186;6.830;2023-02-15T09:32:45;19.10;;;16.60;;
45676;SDS011;31390;51.186;6.830;2023-02-15T09:35:12;19.23;;;17.17;;
45676;SDS011;31390;51.186;6.830;2023-02-15T09:37:39;18.33;;;15.77;;
45676;SDS011;31390;51.186;6.830;2023-02-15T09:40:05;19.07;;;17.07;;
45676;SDS011;31390;51.186;6.830;2023-02-15T09:42:48;18.30;;;16.30;;
45676;SDS011;31390;51.186;6.830;2023-02-15T09:53:14;18.30;;;15.50;;
45676;SDS011;31390;51.186;6.830;2023-02-15T09:55:46;18.00;;;16.10;;
45676;SDS011;31390;51.186;6.830;2023-02-15T10:01:02;21.67;;;16.80;;
45676;SDS011;31390;51.186;6.830;2023-02-15T10:06:04;19.15;;;16.30;;
45676;SDS011;31390;51.186;6.830;2023-02-15T10:08:38;18.07;;;15.90;;
45676;SDS011;31390;51.186;6.830;2023-02-15T10:16:49;18.25;;;15.02;;
45676;SDS011;31390;51.186;6.830;2023-02-15T10:19:28;18.80;;;16.05;;
45676;SDS011;31390;51.186;6.830;2023-02-15T10:22:06;17.02;;;15.13;;
45676;SDS011;31390;51.186;6.830;2023-02-15T10:27:20;19.15;;;15.55;;
45676;SDS011;31390;51.186;6.830;2023-02-15T10:29:50;20.25;;;16.58;;
45676;SDS011;31390;51.186;6.830;2023-02-15T10:32:26;18.58;;;14.85;;
45676;SDS011;31390;51.186;6.830;2023-02-15T10:43:07;18.42;;;15.00;;
45676;SDS011;31390;51.186;6.830;2023-02-15T10:48:22;17.23;;;14.47;;
45676;SDS011;31390;51.186;6.830;2023-02-15T10:50:53;17.00;;;14.43;;
45676;SDS011;31390;51.186;6.830;2023-02-15T10:53:34;17.58;;;14.75;;
45676;SDS011;31390;51.186;6.830;2023-02-15T10:56:11;15.82;;;14.13;;
45676;SDS011;31390;51.186;6.830;2023-02-15T11:04:43;15.60;;;13.30;;
45676;SDS011;31390;51.186;6.830;2023-02-15T11:07:19;16.70;;;13.43;;
45676;SDS011;31390;51.186;6.830;2023-02-15T11:09:48;14.43;;;12.85;;
45676;SDS011;31390;51.186;6.830;2023-02-15T11:12:21;17.25;;;14.10;;
45676;SDS011;31390;51.186;6.830;2023-02-15T11:17:39;15.48;;;13.40;;
45676;SDS011;31390;51.186;6.830;2023-02-15T11:20:28;15.73;;;12.95;;
45676;SDS011;31390;51.186;6.830;2023-02-15T11:22:57;16.88;;;13.20;;
45676;SDS011;31390;51.186;6.830;2023-02-15T11:25:31;14.90;;;12.68;;
45676;SDS011;31390;51.186;6.830;2023-02-15T11:28:00;14.13;;;12.63;;
45676;SDS011;31390;51.186;6.830;2023-02-15T11:30:49;16.02;;;13.65;;
45676;SDS011;31390;51.186;6.830;2023-02-15T11:33:23;15.20;;;13.60;;
45676;SDS011;31390;51.186;6.830;2023-02-15T11:38:22;16.45;;;14.05;;
45676;SDS011;31390;51.186;6.830;2023-02-15T11:40:59;15.02;;;13.43;;
45676;SDS011;31390;51.186;6.830;2023-02-15T11:43:39;15.65;;;14.02;;
45676;SDS011;31390;51.186;6.830;2023-02-15T11:46:11;14.93;;;13.32;;
45676;SDS011;31390;51.186;6.830;2023-02-15T11:48:42;15.23;;;13.25;;
45676;SDS011;31390;51.186;6.830;2023-02-15T11:51:15;16.50;;;13.45;;
45676;SDS011;31390;51.186;6.830;2023-02-15T11:53:42;16.60;;;13.82;;
45676;SDS011;31390;51.186;6.830;2023-02-15T11:56:17;15.07;;;12.75;;
45676;SDS011;31390;51.186;6.830;2023-02-15T11:58:49;14.48;;;12.95;;
45676;SDS011;31390;51.186;6.830;2023-02-15T12:03:51;17.00;;;13.88;;
45676;SDS011;31390;51.186;6.830;2023-02-15T12:06:23;18.38;;;13.35;;
45676;SDS011;31390;51.186;6.830;2023-02-15T12:08:53;15.25;;;13.18;;
45676;SDS011;31390;51.186;6.830;2023-02-15T12:11:31;20.75;;;12.98;;
45676;SDS011;31390;51.186;6.830;2023-02-15T12:14:01;17.73;;;12.60;;
45676;SDS011;31390;51.186;6.830;2023-02-15T12:16:28;16.25;;;13.10;;
45676;SDS011;31390;51.186;6.830;2023-02-15T12:18:58;16.52;;;12.73;;
45676;SDS011;31390;51.186;6.830;2023-02-15T12:21:30;14.25;;;12.45;;
45676;SDS011;31390;51.186;6.830;2023-02-15T12:24:11;15.15;;;12.30;;
45676;SDS011;31390;51.186;6.830;2023-02-15T12:26:41;17.48;;;12.65;;
45676;SDS011;31390;51.186;6.830;2023-02-15T12:29:12;15.35;;;12.25;;
45676;SDS011;31390;51.186;6.830;2023-02-15T12:31:41;14.88;;;11.90;;
45676;SDS011;31390;51.186;6.830;2023-02-15T12:34:12;13.82;;;12.07;;
45676;SDS011;31390;51.186;6.830;2023-02-15T12:36:43;13.63;;;12.15;;
45676;SDS011;31390;51.186;6.830;2023-02-15T12:41:46;13.80;;;11.88;;
45676;SDS011;31390;51.186;6.830;2023-02-15T12:44:17;14.50;;;12.60;;
45676;SDS011;31390;51.186;6.830;2023-02-15T12:46:56;15.60;;;12.63;;
45676;SDS011;31390;51.186;6.830;2023-02-15T12:49:24;13.20;;;11.43;;
45676;SDS011;31390;51.186;6.830;2023-02-15T12:51:52;13.10;;;11.60;;
45676;SDS011;31390;51.186;6.830;2023-02-15T12:56:49;14.90;;;11.88;;
45676;SDS011;31390;51.186;6.830;2023-02-15T12:59:15;15.45;;;13.05;;
45676;SDS011;31390;51.186;6.830;2023-02-15T13:01:48;13.13;;;11.50;;
45676;SDS011;31390;51.186;6.830;2023-02-15T13:04:20;14.93;;;11.73;;
45676;SDS011;31390;51.186;6.830;2023-02-15T13:06:49;14.48;;;12.07;;
45676;SDS011;31390;51.186;6.830;2023-02-15T13:09:20;12.30;;;10.63;;
45676;SDS011;31390;51.186;6.830;2023-02-15T13:11:46;14.73;;;11.20;;
45676;SDS011;31390;51.186;6.830;2023-02-15T13:16:44;12.98;;;11.40;;
45676;SDS011;31390;51.186;6.830;2023-02-15T13:21:39;14.20;;;10.90;;
45676;SDS011;31390;51.186;6.830;2023-02-15T13:24:10;15.63;;;11.75;;
45676;SDS011;31390;51.186;6.830;2023-02-15T13:26:40;14.55;;;10.93;;
45676;SDS011;31390;51.186;6.830;2023-02-15T13:29:17;11.93;;;10.75;;
45676;SDS011;31390;51.186;6.830;2023-02-15T13:31:44;13.70;;;11.48;;
45676;SDS011;31390;51.186;6.830;2023-02-15T13:34:15;11.35;;;10.15;;
45676;SDS011;31390;51.186;6.830;2023-02-15T13:36:54;13.77;;;11.20;;
45676;SDS011;31390;51.186;6.830;2023-02-15T13:39:31;12.02;;;10.75;;
45676;SDS011;31390;51.186;6.830;2023-02-15T13:45:01;15.15;;;10.82;;
45676;SDS011;31390;51.186;6.830;2023-02-15T13:52:23;16.20;;;11.25;;
45676;SDS011;31390;51.186;6.830;2023-02-15T13:54:56;12.50;;;10.57;;
45676;SDS011;31390;51.186;6.830;2023-02-15T14:00:18;12.77;;;10.60;;
45676;SDS011;31390;51.186;6.830;2023-02-15T14:05:39;11.63;;;10.35;;
45676;SDS011;31390;51.186;6.830;2023-02-15T14:08:12;15.63;;;11.52;;
45676;SDS011;31390;51.186;6.830;2023-02-15T14:18:54;12.73;;;9.80;;
45676;SDS011;31390;51.186;6.830;2023-02-15T14:21:26;14.25;;;11.43;;
45676;SDS011;31390;51.186;6.830;2023-02-15T14:31:17;12.45;;;10.65;;
45676;SDS011;31390;51.186;6.830;2023-02-15T14:33:53;14.82;;;11.23;;
45676;SDS011;31390;51.186;6.830;2023-02-15T14:36:21;15.02;;;12.32;;
45676;SDS011;31390;51.186;6.830;2023-02-15T14:41:24;14.90;;;11.63;;
45676;SDS011;31390;51.186;6.830;2023-02-15T14:49:05;13.25;;;11.70;;
45676;SDS011;31390;51.186;6.830;2023-02-15T14:54:06;14.35;;;12.23;;
45676;SDS011;31390;51.186;6.830;2023-02-15T14:56:33;14.88;;;11.80;;
45676;SDS011;31390;51.186;6.830;2023-02-15T14:59:13;13.85;;;12.35;;
45676;SDS011;31390;51.186;6.830;2023-02-15T15:01:40;15.38;;;12.63;;
45676;SDS011;31390;51.186;6.830;2023-02-15T15:04:08;13.48;;;11.82;;
45676;SDS011;31390;51.186;6.830;2023-02-15T15:06:36;16.67;;;12.55;;
45676;SDS011;31390;51.186;6.830;2023-02-15T15:09:12;15.77;;;12.32;;
45676;SDS011;31390;51.186;6.830;2023-02-15T15:11:48;14.07;;;12.20;;
45676;SDS011;31390;51.186;6.830;2023-02-15T15:16:58;14.20;;;12.70;;
45676;SDS011;31390;51.186;6.830;2023-02-15T15:22:20;15.05;;;13.05;;
45676;SDS011;31390;51.186;6.830;2023-02-15T15:24:47;17.42;;;13.35;;
45676;SDS011;31390;51.186;6.830;2023-02-15T15:29:59;15.38;;;12.63;;
45676;SDS011;31390;51.186;6.830;2023-02-15T15:32:26;14.48;;;12.60;;
45676;SDS011;31390;51.186;6.830;2023-02-15T15:46:10;15.02;;;12.68;;
45676;SDS011;31390;51.186;6.830;2023-02-15T15:48:38;14.18;;;12.65;;
45676;SDS011;31390;51.186;6.830;2023-02-15T15:51:10;17.00;;;12.75;;
45676;SDS011;31390;51.186;6.830;2023-02-15T15:53:40;14.15;;;12.15;;
45676;SDS011;31390;51.186;6.830;2023-02-15T15:56:11;14.88;;;12.23;;
45676;SDS011;31390;51.186;6.830;2023-02-15T15:58:41;13.93;;;12.35;;
45676;SDS011;31390;51.186;6.830;2023-02-15T16:01:09;14.25;;;12.48;;
45676;SDS011;31390;51.186;6.830;2023-02-15T16:03:37;13.95;;;12.57;;
45676;SDS011;31390;51.186;6.830;2023-02-15T16:06:04;14.65;;;12.85;;
45676;SDS011;31390;51.186;6.830;2023-02-15T16:10:57;14.05;;;12.57;;
45676;SDS011;31390;51.186;6.830;2023-02-15T16:13:24;14.48;;;12.95;;
45676;SDS011;31390;51.186;6.830;2023-02-15T16:15:51;13.93;;;12.40;;
45676;SDS011;31390;51.186;6.830;2023-02-15T16:18:23;13.70;;;12.38;;
45676;SDS011;31390;51.186;6.830;2023-02-15T16:20:58;14.30;;;12.75;;
45676;SDS011;31390;51.186;6.830;2023-02-15T16:23:39;16.02;;;12.45;;
45676;SDS011;31390;51.186;6.830;2023-02-15T16:26:14;14.48;;;12.43;;
45676;SDS011;31390;51.186;6.830;2023-02-15T16:28:47;14.85;;;13.18;;
45676;SDS011;31390;51.186;6.830;2023-02-15T16:31:15;16.05;;;14.07;;
45676;SDS011;31390;51.186;6.830;2023-02-15T16:33:42;15.63;;;13.95;;
45676;SDS011;31390;51.186;6.830;2023-02-15T16:36:19;14.73;;;13.27;;
45676;SDS011;31390;51.186;6.830;2023-02-15T16:41:16;14.65;;;12.98;;
45676;SDS011;31390;51.186;6.830;2023-02-15T16:43:44;17.55;;;14.32;;
45676;SDS011;31390;51.186;6.830;2023-02-15T16:46:12;20.85;;;17.85;;
45676;SDS011;31390;51.186;6.830;2023-02-15T16:48:41;18.85;;;16.95;;
45676;SDS011;31390;51.186;6.830;2023-02-15T16:51:08;18.90;;;16.90;;
45676;SDS011;31390;51.186;6.830;2023-02-15T16:53:35;17.20;;;14.93;;
45676;SDS011;31390;51.186;6.830;2023-02-15T16:56:03;17.23;;;14.85;;
45676;SDS011;31390;51.186;6.830;2023-02-15T16:58:32;18.33;;;15.70;;
45676;SDS011;31390;51.186;6.830;2023-02-15T17:01:02;19.52;;;16.83;;
45676;SDS011;31390;51.186;6.830;2023-02-15T17:03:30;16.98;;;15.27;;
45676;SDS011;31390;51.186;6.830;2023-02-15T17:06:00;17.27;;;14.23;;
45676;SDS011;31390;51.186;6.830;2023-02-15T17:08:28;18.75;;;16.75;;
45676;SDS011;31390;51.186;6.830;2023-02-15T17:13:21;17.10;;;15.40;;
45676;SDS011;31390;51.186;6.830;2023-02-15T17:18:31;15.20;;;13.60;;
45676;SDS011;31390;51.186;6.830;2023-02-15T17:21:00;15.23;;;13.70;;
45676;SDS011;31390;51.186;6.830;2023-02-15T17:23:32;16.65;;;14.95;;
45676;SDS011;31390;51.186;6.830;2023-02-15T17:26:00;16.67;;;14.90;;
45676;SDS011;31390;51.186;6.830;2023-02-15T17:28:28;16.13;;;14.43;;
45676;SDS011;31390;51.186;6.830;2023-02-15T17:30:56;18.05;;;16.13;;